Time;durP1;ratioP1;P1;durP2;ratioP2;P2;SDS_P1;SDS_P2;PMS_P1;PMS_P2;Temp;Humidity;BMP_temperature;BMP_pressure;BME280_temperature;BME280_humidity;BME280_pressure;Samples;Min_cycle;Max_cycle;Signal;HPM_P1;HPM_P2
2022/01/13 00:01:05;;;;;;;20.13;10.27;;;2.30;76.50;;;;;;5000094;28;20200;-76
2022/01/13 00:03:33;;;;;;;21.47;10.07;;;2.30;76.50;;;;;;4997243;28;20204;-75
2022/01/13 00:06:02;;;;;;;22.13;10.00;;;2.30;76.50;;;;;;4996432;28;20204;-76
2022/01/13 00:08:31;;;;;;;25.17;10.57;;;2.30;76.50;;;;;;4999326;28;20196;-76
2022/01/13 00:11:00;;;;;;;21.87;10.70;;;2.30;76.60;;;;;;4994429;28;20212;-76
2022/01/13 00:13:35;;;;;;;23.30;10.50;;;2.30;76.60;;;;;;4999541;28;20230;-76
2022/01/13 00:16:25;;;;;;;25.97;12.03;;;2.20;76.50;;;;;;5000147;28;20191;-76
2022/01/13 00:19:06;;;;;;;21.00;10.20;;;2.20;76.50;;;;;;4995534;28;20189;-76
2022/01/13 00:21:38;;;;;;;23.23;10.87;;;2.20;76.50;;;;;;4997145;28;20211;-76
2022/01/13 00:24:12;;;;;;;25.70;10.70;;;2.20;76.50;;;;;;4997470;28;20760;-76
2022/01/13 00:26:41;;;;;;;23.53;10.80;;;2.20;76.60;;;;;;4999580;28;20192;-76
2022/01/13 00:29:10;;;;;;;23.50;10.67;;;2.20;76.70;;;;;;4996416;28;20197;-76
2022/01/13 00:31:41;;;;;;;21.27;10.30;;;2.20;76.80;;;;;;4998606;28;20228;-76
2022/01/13 00:34:09;;;;;;;24.93;11.87;;;2.20;76.80;;;;;;4997517;28;20192;-76
2022/01/13 00:36:40;;;;;;;24.77;11.00;;;2.20;76.80;;;;;;5000071;28;20228;-76
2022/01/13 00:39:11;;;;;;;21.13;11.20;;;2.30;77.00;;;;;;5001003;28;20850;-76
2022/01/13 00:41:40;;;;;;;26.10;10.53;;;2.20;76.90;;;;;;4999744;28;20203;-76
2022/01/13 00:44:09;;;;;;;27.47;11.00;;;2.20;77.00;;;;;;5000808;28;20662;-76
2022/01/13 00:46:43;;;;;;;23.63;10.87;;;2.20;77.10;;;;;;5000691;28;20251;-76
2022/01/13 00:49:13;;;;;;;25.57;10.57;;;2.20;77.10;;;;;;5003507;28;20565;-76
2022/01/13 00:51:42;;;;;;;27.17;11.03;;;2.20;77.10;;;;;;4999834;28;20189;-76
2022/01/13 00:54:12;;;;;;;22.60;11.10;;;2.20;77.20;;;;;;5002085;28;20201;-76
2022/01/13 00:56:42;;;;;;;26.50;11.63;;;2.20;77.20;;;;;;4998917;28;20200;-76
2022/01/13 00:59:12;;;;;;;28.60;12.40;;;2.20;77.30;;;;;;5001689;28;20211;-76
2022/01/13 01:01:46;;;;;;;23.77;11.53;;;2.20;77.50;;;;;;4998749;28;20669;-76
2022/01/13 01:04:15;;;;;;;28.50;11.73;;;2.20;78.30;;;;;;5003317;28;20188;-76
2022/01/13 01:06:44;;;;;;;26.60;11.40;;;2.20;77.50;;;;;;4998932;28;20215;-76
2022/01/13 01:09:18;;;;;;;24.07;11.77;;;2.20;77.40;;;;;;5001045;28;20189;-76
2022/01/13 01:11:48;;;;;;;25.70;11.40;;;2.20;77.40;;;;;;5000192;28;20192;-76
2022/01/13 01:14:18;;;;;;;28.97;11.77;;;2.20;77.40;;;;;;4999482;28;20199;-76
2022/01/13 01:16:46;;;;;;;27.10;11.07;;;2.20;77.40;;;;;;4997885;28;20188;-76
2022/01/13 01:19:25;;;;;;;22.37;10.40;;;2.20;77.40;;;;;;4997670;28;20207;-76
2022/01/13 01:27:32;;;;;;;26.00;11.40;;;2.20;77.30;;;;;;4997728;28;20193;-76
2022/01/13 01:30:06;;;;;;;24.17;10.97;;;2.10;77.20;;;;;;5001538;28;20263;-76
2022/01/13 01:32:37;;;;;;;24.43;10.93;;;2.10;77.20;;;;;;4998443;28;20227;-76
2022/01/13 01:35:13;;;;;;;25.70;10.83;;;2.10;77.20;;;;;;4995498;28;20219;-77
2022/01/13 01:37:42;;;;;;;23.90;11.23;;;2.10;77.20;;;;;;4998385;28;20227;-76
2022/01/13 01:40:14;;;;;;;25.63;11.50;;;2.00;77.20;;;;;;5000615;28;20196;-76
2022/01/13 01:42:45;;;;;;;24.33;11.00;;;2.00;77.40;;;;;;4999273;28;20192;-76
2022/01/13 01:45:15;;;;;;;24.67;11.47;;;2.00;77.50;;;;;;5001001;28;20196;-75
2022/01/13 01:47:45;;;;;;;29.53;12.80;;;2.00;77.70;;;;;;4997810;28;20200;-76
2022/01/13 01:50:19;;;;;;;28.87;12.60;;;2.00;77.80;;;;;;5001590;28;20758;-76
2022/01/13 01:52:49;;;;;;;32.03;14.27;;;2.00;78.10;;;;;;5001832;28;20609;-76
2022/01/13 01:55:21;;;;;;;30.30;14.17;;;2.00;78.20;;;;;;5001343;28;20192;-76
2022/01/13 01:57:51;;;;;;;34.20;14.43;;;2.00;78.20;;;;;;4997363;28;20192;-76
2022/01/13 02:00:22;;;;;;;29.63;13.17;;;2.00;78.30;;;;;;5001446;28;20201;-76
2022/01/13 02:02:51;;;;;;;33.47;14.57;;;2.00;78.40;;;;;;5001115;28;20185;-76
2022/01/13 02:05:19;;;;;;;35.63;17.40;;;2.00;78.50;;;;;;4999045;28;20196;-76
2022/01/13 02:07:48;;;;;;;32.77;15.33;;;2.00;78.60;;;;;;5001462;28;20193;-75
2022/01/13 02:10:17;;;;;;;36.33;16.43;;;2.10;78.70;;;;;;5002366;28;20697;-75
2022/01/13 02:12:51;;;;;;;32.43;14.47;;;2.10;78.80;;;;;;5003512;28;20223;-76
2022/01/13 02:15:34;;;;;;;27.23;13.93;;;2.00;78.70;;;;;;5003572;28;20180;-75
2022/01/13 02:18:06;;;;;;;28.57;13.17;;;2.10;78.90;;;;;;4996921;28;20201;-76
2022/01/13 02:20:48;;;;;;;29.43;14.47;;;2.00;79.00;;;;;;5003482;28;20203;-75
2022/01/13 02:23:32;;;;;;;27.70;13.57;;;2.00;78.90;;;;;;4996689;28;20189;-76
2022/01/13 02:26:01;;;;;;;27.07;13.07;;;2.00;78.90;;;;;;5001617;28;20589;-76
2022/01/13 02:28:30;;;;;;;26.03;13.47;;;2.00;79.00;;;;;;4994341;28;20196;-76
2022/01/13 02:30:59;;;;;;;33.40;14.43;;;2.00;79.00;;;;;;4999711;28;20204;-76
2022/01/13 02:33:28;;;;;;;29.43;14.47;;;2.00;79.10;;;;;;5001861;28;20231;-74
2022/01/13 02:35:57;;;;;;;28.50;14.20;;;2.00;79.10;;;;;;4999239;28;20235;-76
2022/01/13 02:38:26;;;;;;;23.73;12.97;;;2.00;79.10;;;;;;4998157;28;20211;-75
2022/01/13 02:40:56;;;;;;;30.70;15.90;;;2.00;79.10;;;;;;4997513;28;20961;-75
2022/01/13 02:43:25;;;;;;;27.27;13.27;;;2.00;79.40;;;;;;4999442;28;20196;-76
2022/01/13 02:46:06;;;;;;;31.33;14.17;;;2.00;79.60;;;;;;4999598;28;20196;-76
2022/01/13 02:48:36;;;;;;;29.57;12.90;;;2.00;79.60;;;;;;4998499;28;20195;-76
2022/01/13 02:51:06;;;;;;;29.70;13.63;;;2.00;79.60;;;;;;4999265;28;20264;-75
2022/01/13 02:53:34;;;;;;;26.53;12.73;;;2.00;79.50;;;;;;4996914;28;20965;-76
2022/01/13 02:56:04;;;;;;;29.80;13.53;;;2.00;79.50;;;;;;4998913;28;20227;-75
2022/01/13 02:58:35;;;;;;;28.00;12.77;;;2.00;79.40;;;;;;4998212;28;20196;-76
2022/01/13 03:01:04;;;;;;;25.53;12.83;;;2.00;79.50;;;;;;5000176;28;20192;-76
2022/01/13 03:03:35;;;;;;;31.57;13.23;;;2.00;79.40;;;;;;4998366;28;20197;-76
2022/01/13 03:06:10;;;;;;;25.17;13.17;;;2.10;79.60;;;;;;4999893;28;20192;-75
2022/01/13 03:08:38;;;;;;;29.47;12.10;;;2.10;79.60;;;;;;4994857;28;20188;-75
2022/01/13 03:11:07;;;;;;;27.73;12.83;;;2.10;79.60;;;;;;4999198;28;20192;-76
2022/01/13 03:13:35;;;;;;;26.43;12.17;;;2.10;79.60;;;;;;5001608;28;20243;-76
2022/01/13 03:16:08;;;;;;;29.63;12.83;;;2.10;79.60;;;;;;4998325;28;20870;-75
2022/01/13 03:18:37;;;;;;;29.70;13.40;;;2.10;79.60;;;;;;4999742;28;20236;-75
2022/01/13 03:21:06;;;;;;;29.80;12.73;;;2.10;79.60;;;;;;4998624;28;20620;-76
2022/01/13 03:23:37;;;;;;;27.40;12.27;;;2.10;79.60;;;;;;4998487;28;20199;-76
2022/01/13 03:26:06;;;;;;;27.13;12.43;;;2.10;79.60;;;;;;4998103;28;20208;-76
2022/01/13 03:28:40;;;;;;;24.70;12.37;;;2.10;79.70;;;;;;4992195;28;20204;-75
2022/01/13 03:31:09;;;;;;;27.17;12.17;;;2.10;79.70;;;;;;4998798;28;20216;-75
2022/01/13 03:33:37;;;;;;;31.43;12.77;;;2.10;79.70;;;;;;4998891;28;20219;-76
2022/01/13 03:36:05;;;;;;;28.30;12.27;;;2.00;79.60;;;;;;4997537;28;20300;-76
2022/01/13 03:38:34;;;;;;;28.53;12.10;;;2.10;79.60;;;;;;4992600;28;20840;-75
2022/01/13 03:41:04;;;;;;;27.33;12.20;;;2.00;79.60;;;;;;4997278;28;20192;-76
2022/01/13 03:43:35;;;;;;;23.30;12.60;;;2.00;79.60;;;;;;4998650;28;20188;-76
2022/01/13 03:46:04;;;;;;;28.50;12.87;;;2.00;79.70;;;;;;5001021;28;20285;-75
2022/01/13 03:48:32;;;;;;;26.27;13.13;;;2.00;79.70;;;;;;4994533;28;20196;-75
2022/01/13 03:51:01;;;;;;;33.42;15.88;;;2.10;79.80;;;;;;4995749;28;20453;-76
2022/01/13 03:54:06;;;;;;;30.53;14.10;;;2.10;80.00;;;;;;4998168;28;20224;-76
2022/01/13 03:57:19;;;;;;;27.40;13.43;;;2.10;80.10;;;;;;4998211;28;20657;-76
2022/01/13 04:00:45;;;;;;;33.13;13.87;;;2.10;80.10;;;;;;4992841;28;20184;-76
2022/01/13 04:03:14;;;;;;;29.17;13.07;;;2.10;80.10;;;;;;4997332;28;20204;-75
2022/01/13 04:06:01;;;;;;;32.72;15.85;;;2.20;80.30;;;;;;4994085;28;20440;-76
2022/01/13 04:08:29;;;;;;;25.20;12.53;;;2.20;80.60;;;;;;4997983;28;20246;-76
2022/01/13 04:11:15;;;;;;;32.37;14.67;;;2.20;80.50;;;;;;5000497;28;20194;-75
2022/01/13 04:13:50;;;;;;;28.13;12.57;;;2.20;80.50;;;;;;5000837;28;20215;-75
2022/01/13 04:16:21;;;;;;;38.07;13.67;;;2.30;80.40;;;;;;5002532;28;20192;-75
2022/01/13 04:18:52;;;;;;;35.80;13.53;;;2.30;80.30;;;;;;5004223;28;20197;-76
2022/01/13 04:21:20;;;;;;;26.63;13.47;;;2.30;80.20;;;;;;5001040;28;20203;-76
2022/01/13 04:23:49;;;;;;;30.87;13.50;;;2.30;80.20;;;;;;5005075;28;20215;-75
2022/01/13 04:26:27;;;;;;;29.53;13.93;;;2.30;80.20;;;;;;5002392;28;20196;-76
2022/01/13 04:29:04;;;;;;;33.23;12.93;;;2.30;80.10;;;;;;5001984;28;20188;-75
2022/01/13 04:31:33;;;;;;;25.83;12.27;;;2.30;80.10;;;;;;5004251;28;20196;-75
2022/01/13 04:34:01;;;;;;;24.80;11.73;;;2.30;80.00;;;;;;5002492;28;20738;-76
2022/01/13 04:36:29;;;;;;;32.60;14.23;;;2.30;80.00;;;;;;4998605;28;20224;-75
2022/01/13 04:38:58;;;;;;;26.20;11.67;;;2.30;80.00;;;;;;5000131;28;20196;-75
2022/01/13 04:41:32;;;;;;;35.73;12.87;;;2.30;79.90;;;;;;4995479;28;20700;-76
2022/01/13 04:44:02;;;;;;;28.63;12.40;;;2.30;79.90;;;;;;5003636;28;20203;-75
2022/01/13 04:46:30;;;;;;;31.53;13.70;;;2.40;80.00;;;;;;4997307;28;20235;-75
2022/01/13 04:49:00;;;;;;;29.70;13.03;;;2.40;80.00;;;;;;4997618;28;20200;-75
2022/01/13 04:51:29;;;;;;;29.87;13.80;;;2.40;80.10;;;;;;4994716;28;20196;-76
2022/01/13 04:53:57;;;;;;;33.47;14.40;;;2.40;80.10;;;;;;5004142;28;20910;-75
2022/01/13 04:56:31;;;;;;;31.67;14.33;;;2.40;80.10;;;;;;5002488;28;20208;-75
2022/01/13 04:59:01;;;;;;;29.13;12.50;;;2.40;80.20;;;;;;4998419;28;20197;-75
2022/01/13 05:01:29;;;;;;;28.53;13.63;;;2.40;80.20;;;;;;5001666;28;20200;-75
2022/01/13 05:03:58;;;;;;;31.23;15.35;;;2.50;80.30;;;;;;4998612;28;21198;-75
2022/01/13 05:06:26;;;;;;;36.03;14.07;;;2.50;80.90;;;;;;5001089;28;20206;-75
2022/01/13 05:08:55;;;;;;;26.10;12.77;;;2.50;80.90;;;;;;4994320;28;20963;-75
2022/01/13 05:11:23;;;;;;;31.07;13.43;;;2.50;80.80;;;;;;5002779;28;20659;-76
2022/01/13 05:13:52;;;;;;;26.85;13.10;;;2.60;80.70;;;;;;4998767;28;20193;-76
2022/01/13 05:16:26;;;;;;;30.07;13.33;;;2.60;80.60;;;;;;5002048;28;20643;-75
2022/01/13 05:18:58;;;;;;;28.03;13.37;;;2.60;80.50;;;;;;5002237;28;20224;-75
2022/01/13 05:21:38;;;;;;;36.73;13.50;;;2.60;80.50;;;;;;4999285;28;20191;-76
2022/01/13 05:24:07;;;;;;;35.73;14.17;;;2.60;80.50;;;;;;5004048;28;20185;-75
2022/01/13 05:26:35;;;;;;;33.17;14.10;;;2.60;80.40;;;;;;5004610;28;20227;-75
2022/01/13 05:29:03;;;;;;;29.23;13.53;;;2.70;80.50;;;;;;5001456;28;20194;-76
2022/01/13 05:31:33;;;;;;;36.27;14.47;;;2.70;80.50;;;;;;4998918;28;20201;-75
2022/01/13 05:34:01;;;;;;;27.33;13.00;;;2.70;80.50;;;;;;5000250;28;20204;-75
2022/01/13 05:36:30;;;;;;;28.07;12.83;;;2.70;80.50;;;;;;4996841;28;20273;-75
2022/01/13 05:38:58;;;;;;;27.63;13.10;;;2.70;80.50;;;;;;5001255;28;20201;-75
2022/01/13 05:41:26;;;;;;;29.57;14.27;;;2.70;80.50;;;;;;5000538;28;20252;-75
2022/01/13 05:43:55;;;;;;;29.63;14.03;;;2.70;80.50;;;;;;5000266;28;20296;-75
2022/01/13 05:46:23;;;;;;;28.00;13.47;;;2.70;80.60;;;;;;5000282;28;20193;-75
2022/01/13 05:48:54;;;;;;;33.67;14.50;;;2.80;80.60;;;;;;5002128;28;20224;-75
2022/01/13 05:51:22;;;;;;;32.70;14.57;;;2.80;81.50;;;;;;4997120;28;20199;-76
2022/01/13 05:53:51;;;;;;;35.30;14.17;;;2.80;80.80;;;;;;5000142;28;20861;-75
2022/01/13 05:56:19;;;;;;;32.63;14.20;;;2.70;80.60;;;;;;5000059;28;20260;-76
2022/01/13 05:58:47;;;;;;;31.20;14.30;;;2.70;80.60;;;;;;5001886;28;20189;-76
2022/01/13 06:01:15;;;;;;;33.20;13.63;;;2.70;80.50;;;;;;4997244;28;20261;-75
2022/01/13 06:03:44;;;;;;;30.10;13.70;;;2.70;80.50;;;;;;4998539;28;20199;-76
2022/01/13 06:06:14;;;;;;;34.97;15.27;;;2.70;80.60;;;;;;5000440;28;20188;-75
2022/01/13 06:08:42;;;;;;;32.50;14.20;;;2.70;80.60;;;;;;5001997;28;20255;-75
2022/01/13 06:11:10;;;;;;;29.30;13.50;;;2.70;80.60;;;;;;5002955;28;20189;-75
2022/01/13 06:13:38;;;;;;;36.13;14.70;;;2.60;80.60;;;;;;5000763;28;20689;-76
2022/01/13 06:16:07;;;;;;;32.93;14.07;;;2.60;80.60;;;;;;5002828;28;20808;-75
2022/01/13 06:18:35;;;;;;;28.13;13.80;;;2.60;80.80;;;;;;4998555;28;20193;-75
2022/01/13 06:21:03;;;;;;;30.57;14.07;;;2.60;80.80;;;;;;5002904;28;20930;-75
2022/01/13 06:23:33;;;;;;;29.70;15.00;;;2.60;80.80;;;;;;5001210;28;20570;-75
2022/01/13 06:26:03;;;;;;;32.53;15.07;;;2.60;80.90;;;;;;5002127;28;20232;-75
2022/01/13 06:28:32;;;;;;;32.07;15.17;;;2.60;80.90;;;;;;5002299;28;20823;-75
2022/01/13 06:31:00;;;;;;;33.50;14.07;;;2.60;80.90;;;;;;5002740;28;20193;-76
2022/01/13 06:33:29;;;;;;;36.23;14.73;;;2.60;81.00;;;;;;4997433;28;20182;-75
2022/01/13 06:35:57;;;;;;;32.10;14.43;;;2.60;81.10;;;;;;4999355;28;20274;-75
2022/01/13 06:38:26;;;;;;;32.93;15.07;;;2.60;81.10;;;;;;5001473;28;20967;-76
2022/01/13 06:40:55;;;;;;;33.87;15.20;;;2.60;81.10;;;;;;5001127;28;20200;-75
2022/01/13 06:43:24;;;;;;;38.37;15.47;;;2.60;81.10;;;;;;5000283;28;20643;-75
2022/01/13 06:45:52;;;;;;;29.73;13.87;;;2.60;81.10;;;;;;5001050;28;20208;-76
2022/01/13 06:48:20;;;;;;;31.17;15.20;;;2.60;81.10;;;;;;5001769;28;20255;-75
2022/01/13 06:50:49;;;;;;;28.17;14.33;;;2.60;81.10;;;;;;5002751;28;20190;-75
2022/01/13 06:53:20;;;;;;;31.20;13.90;;;2.60;81.10;;;;;;5000636;28;20221;-75
2022/01/13 06:55:49;;;;;;;28.77;12.40;;;2.70;81.20;;;;;;5000762;28;20206;-75
2022/01/13 06:58:18;;;;;;;29.03;13.53;;;2.60;81.20;;;;;;4998407;28;20202;-75
2022/01/13 07:00:47;;;;;;;35.30;14.17;;;2.70;81.30;;;;;;5001537;28;20206;-75
2022/01/13 07:03:15;;;;;;;27.57;14.30;;;2.70;81.20;;;;;;5000263;28;20733;-75
2022/01/13 07:05:43;;;;;;;31.77;14.43;;;2.70;81.20;;;;;;5002097;28;20192;-75
2022/01/13 07:08:12;;;;;;;33.57;14.07;;;2.70;81.20;;;;;;5000124;28;20273;-75
2022/01/13 07:10:41;;;;;;;32.77;13.43;;;2.70;81.30;;;;;;5001397;28;20196;-75
2022/01/13 07:13:09;;;;;;;28.97;13.97;;;2.70;81.30;;;;;;5002294;28;20193;-75
2022/01/13 07:15:39;;;;;;;32.40;14.47;;;2.70;81.40;;;;;;5001330;28;20216;-75
2022/01/13 07:18:07;;;;;;;30.83;13.47;;;2.60;81.20;;;;;;5002632;28;20193;-75
2022/01/13 07:20:36;;;;;;;28.27;12.87;;;2.70;81.30;;;;;;5001301;28;20208;-75
2022/01/13 07:23:04;;;;;;;33.57;13.53;;;2.70;81.30;;;;;;5003369;28;20204;-75
2022/01/13 07:25:32;;;;;;;28.97;13.07;;;2.70;81.30;;;;;;4999894;28;20198;-77
2022/01/13 07:28:00;;;;;;;30.87;13.57;;;2.70;81.40;;;;;;4998830;28;20190;-76
2022/01/13 07:30:29;;;;;;;29.23;13.83;;;2.70;81.30;;;;;;5002175;28;20198;-76
2022/01/13 07:32:59;;;;;;;30.17;13.90;;;2.70;81.40;;;;;;5001190;28;20198;-77
2022/01/13 07:35:27;;;;;;;35.47;14.07;;;2.60;81.40;;;;;;5001271;28;20223;-77
2022/01/13 07:37:56;;;;;;;32.47;15.00;;;2.70;81.50;;;;;;4999634;28;20846;-76
2022/01/13 07:40:24;;;;;;;33.93;14.27;;;2.70;82.00;;;;;;5001686;28;20209;-77
2022/01/13 07:42:53;;;;;;;34.93;15.40;;;2.70;81.90;;;;;;5003506;28;20610;-76
2022/01/13 07:45:21;;;;;;;33.23;14.13;;;2.80;81.80;;;;;;5009076;28;20519;-77
2022/01/13 07:47:49;;;;;;;29.67;13.93;;;2.80;81.70;;;;;;5000031;28;20204;-76
2022/01/13 07:50:19;;;;;;;32.03;15.37;;;2.80;81.50;;;;;;5008829;28;20215;-76
2022/01/13 07:52:47;;;;;;;26.67;12.63;;;2.80;81.40;;;;;;4998822;28;20200;-76
2022/01/13 13:37:20;;;;;;;20.37;9.97;;;3.60;75.40;;;;;;5099904;27;20562;-75
2022/01/13 13:39:49;;;;;;;17.20;9.23;;;3.90;75.20;;;;;;5100335;28;20201;-75
2022/01/13 13:42:17;;;;;;;23.63;10.03;;;4.00;74.60;;;;;;5099112;28;20197;-76
2022/01/13 13:44:47;;;;;;;16.33;8.63;;;4.00;74.60;;;;;;5101098;28;20204;-76
2022/01/13 13:47:18;;;;;;;22.93;10.70;;;4.20;74.60;;;;;;5100788;28;20185;-76
2022/01/13 13:49:48;;;;;;;22.37;9.80;;;4.30;74.40;;;;;;5101061;28;20193;-76
2022/01/13 13:52:17;;;;;;;21.33;10.20;;;4.60;74.10;;;;;;5099139;28;20193;-77
2022/01/13 13:54:52;;;;;;;23.30;10.23;;;4.70;73.80;;;;;;5098976;28;20198;-76
2022/01/13 13:57:24;;;;;;;23.93;10.00;;;4.90;72.70;;;;;;5099199;28;20189;-76
2022/01/13 13:59:54;;;;;;;16.87;9.53;;;5.50;72.10;;;;;;5099717;28;20213;-77
2022/01/13 14:02:30;;;;;;;23.73;10.20;;;5.60;71.60;;;;;;5091980;28;20185;-77
2022/01/13 14:05:02;;;;;;;19.47;9.33;;;5.50;70.30;;;;;;5098120;28;20197;-76
2022/01/13 14:07:33;;;;;;;20.60;10.48;;;5.70;69.40;;;;;;5096007;28;20824;-76
2022/01/13 14:10:08;;;;;;;20.73;10.40;;;5.70;68.40;;;;;;5094859;28;20190;-75
2022/01/13 14:12:39;;;;;;;17.00;9.53;;;5.80;68.40;;;;;;5096684;28;20181;-76
2022/01/13 14:15:21;;;;;;;19.20;9.70;;;5.70;68.40;;;;;;5091367;28;20213;-76
2022/01/13 14:17:52;;;;;;;19.43;9.70;;;5.80;68.60;;;;;;5095849;28;20194;-78
2022/01/13 14:20:23;;;;;;;24.08;10.23;;;6.40;67.70;;;;;;5100502;28;20432;-76
2022/01/13 14:23:02;;;;;;;22.97;10.70;;;7.40;65.40;;;;;;5097106;28;20188;-76
2022/01/13 14:25:34;;;;;;;23.50;11.23;;;8.30;63.70;;;;;;5100775;28;20245;-76
2022/01/13 14:28:05;;;;;;;24.10;11.73;;;8.30;62.70;;;;;;5090129;28;20181;-76
2022/01/13 14:30:38;;;;;;;19.83;10.90;;;9.00;61.00;;;;;;5099559;28;20201;-76
2022/01/13 14:33:22;;;;;;;25.02;11.93;;;9.10;59.60;;;;;;5099224;28;20428;-76
2022/01/13 14:36:17;;;;;;;23.17;10.87;;;8.60;59.50;;;;;;5108547;28;20825;-76
2022/01/13 14:38:50;;;;;;;28.33;11.67;;;7.90;60.50;;;;;;5089175;28;20192;-76
2022/01/13 14:41:31;;;;;;;21.40;10.13;;;7.50;60.90;;;;;;5106511;28;20193;-76
2022/01/13 14:44:02;;;;;;;20.70;11.27;;;7.10;61.70;;;;;;5100541;28;20187;-76
2022/01/13 14:46:33;;;;;;;23.63;12.20;;;6.90;62.60;;;;;;5098839;28;20239;-76
2022/01/13 14:49:02;;;;;;;24.33;12.23;;;6.70;63.20;;;;;;5105313;28;20184;-76
2022/01/13 14:51:33;;;;;;;28.67;11.53;;;6.40;63.90;;;;;;5104509;28;20228;-76
2022/01/13 14:54:03;;;;;;;26.57;11.70;;;6.30;64.50;;;;;;5102368;28;20192;-76
2022/01/13 14:56:33;;;;;;;24.47;11.70;;;6.10;65.30;;;;;;5104192;28;20221;-76
2022/01/13 14:59:01;;;;;;;25.27;11.50;;;6.00;65.90;;;;;;5106779;28;20181;-75
2022/01/13 15:01:30;;;;;;;31.03;12.63;;;5.80;66.30;;;;;;5103341;28;20735;-75
2022/01/13 15:03:59;;;;;;;21.43;11.47;;;5.70;66.90;;;;;;5104512;28;20185;-75
2022/01/13 15:06:29;;;;;;;28.83;12.27;;;5.60;67.20;;;;;;5104486;28;20470;-76
2022/01/13 15:08:58;;;;;;;29.93;14.10;;;5.50;67.50;;;;;;5104072;28;20192;-75
2022/01/13 15:11:26;;;;;;;30.30;13.03;;;5.30;67.90;;;;;;5103557;28;20845;-76
2022/01/13 15:13:55;;;;;;;32.10;14.60;;;5.20;68.10;;;;;;5105172;28;20242;-76
2022/01/13 15:16:24;;;;;;;34.60;12.40;;;5.20;68.60;;;;;;5100440;28;20261;-78
2022/01/13 15:19:01;;;;;;;30.57;14.10;;;5.10;68.80;;;;;;5105802;28;20291;-76
2022/01/13 15:21:31;;;;;;;28.60;14.17;;;5.00;69.40;;;;;;5106009;28;20176;-76
2022/01/13 15:24:00;;;;;;;31.93;13.57;;;4.90;69.40;;;;;;5104985;28;20185;-75
2022/01/13 15:26:30;;;;;;;27.60;13.23;;;4.80;69.80;;;;;;5102708;28;20618;-75
2022/01/13 15:29:00;;;;;;;30.03;14.03;;;4.70;69.80;;;;;;5103777;28;20196;-75
2022/01/13 15:31:28;;;;;;;27.70;13.53;;;4.50;70.00;;;;;;5105982;28;20187;-76
2022/01/13 15:33:56;;;;;;;29.13;12.77;;;4.50;70.30;;;;;;5101187;28;20204;-74
2022/01/13 15:36:26;;;;;;;28.63;13.93;;;4.40;70.50;;;;;;5103571;28;20230;-76
2022/01/13 15:39:00;;;;;;;28.57;12.37;;;4.30;70.90;;;;;;5103569;28;20191;-75
2022/01/13 15:41:29;;;;;;;27.77;13.07;;;4.20;71.30;;;;;;5103432;28;20275;-75
2022/01/13 15:43:57;;;;;;;27.57;14.00;;;4.10;71.90;;;;;;5105324;28;20206;-74
2022/01/13 15:46:27;;;;;;;24.83;13.00;;;4.10;72.00;;;;;;5096995;28;20200;-75
2022/01/13 15:48:55;;;;;;;32.87;13.73;;;4.00;72.40;;;;;;5102663;28;20569;-75
2022/01/13 15:51:24;;;;;;;31.37;14.20;;;4.00;72.70;;;;;;5099128;28;20192;-75
2022/01/13 15:53:52;;;;;;;30.03;14.07;;;3.90;72.90;;;;;;5098413;28;20222;-75
2022/01/13 15:56:21;;;;;;;35.03;14.50;;;3.80;73.30;;;;;;5099406;28;20273;-75
2022/01/13 15:58:49;;;;;;;35.37;15.33;;;3.80;73.60;;;;;;5092827;28;20206;-75
2022/01/13 16:01:17;;;;;;;36.13;14.80;;;3.70;73.70;;;;;;5102024;28;20198;-75
2022/01/13 16:03:47;;;;;;;34.30;14.80;;;3.70;73.80;;;;;;5097781;28;20300;-76
2022/01/13 16:06:17;;;;;;;35.00;14.23;;;3.70;74.10;;;;;;5102258;28;20361;-75
2022/01/13 16:08:46;;;;;;;33.50;14.83;;;3.60;74.40;;;;;;5104875;28;20183;-76
2022/01/13 16:11:14;;;;;;;28.10;14.97;;;3.60;74.50;;;;;;5101506;28;20221;-74
2022/01/13 16:13:47;;;;;;;29.97;14.17;;;3.50;74.70;;;;;;5102802;28;20195;-75
2022/01/13 16:16:16;;;;;;;30.83;14.90;;;3.50;74.80;;;;;;5102942;28;20218;-75
2022/01/13 16:18:45;;;;;;;33.27;13.60;;;3.50;74.80;;;;;;5100484;28;20190;-75
2022/01/13 16:21:15;;;;;;;29.37;13.47;;;3.40;75.40;;;;;;5104828;28;20628;-75
2022/01/13 16:23:43;;;;;;;26.50;12.83;;;3.40;75.40;;;;;;5104683;28;20205;-75
2022/01/13 16:26:12;;;;;;;32.72;16.33;;;3.40;75.50;;;;;;5101392;28;20424;-75
2022/01/13 16:28:41;;;;;;;30.47;13.87;;;3.30;75.80;;;;;;5098748;28;20631;-75
2022/01/13 16:31:09;;;;;;;33.30;14.30;;;3.30;76.00;;;;;;5099241;28;20197;-75
2022/01/13 16:33:38;;;;;;;31.13;13.53;;;3.20;76.00;;;;;;5104003;28;20199;-75
2022/01/13 16:36:07;;;;;;;32.33;15.37;;;3.20;76.30;;;;;;5104104;28;20226;-75
2022/01/13 16:38:37;;;;;;;28.50;12.23;;;3.20;76.50;;;;;;5102311;28;20207;-75
2022/01/13 16:41:05;;;;;;;34.53;13.70;;;3.20;76.60;;;;;;5095113;27;20193;-75
2022/01/13 16:43:33;;;;;;;33.77;14.10;;;3.10;76.70;;;;;;5101708;28;20182;-75
2022/01/13 16:46:02;;;;;;;31.83;12.80;;;3.10;76.90;;;;;;5099807;28;20232;-74
2022/01/13 16:48:30;;;;;;;31.00;14.30;;;3.10;76.90;;;;;;5103323;28;20282;-75
2022/01/13 16:50:59;;;;;;;28.90;13.30;;;3.00;77.00;;;;;;5099995;28;20191;-75
2022/01/13 16:53:28;;;;;;;30.00;14.27;;;3.00;77.30;;;;;;5102898;28;20194;-75
2022/01/13 16:55:58;;;;;;;28.50;13.10;;;2.90;77.20;;;;;;5093630;28;20324;-75
2022/01/13 16:58:28;;;;;;;30.57;15.27;;;2.90;77.90;;;;;;5094951;28;20218;-75
2022/01/13 17:00:56;;;;;;;29.70;14.47;;;2.90;77.70;;;;;;5102853;28;20194;-74
2022/01/13 17:03:24;;;;;;;31.70;14.27;;;2.90;78.00;;;;;;5103257;28;20179;-75
2022/01/13 17:05:53;;;;;;;36.43;15.97;;;2.90;78.00;;;;;;5100481;28;20197;-75
2022/01/13 17:08:23;;;;;;;28.67;13.80;;;2.80;78.10;;;;;;5101298;28;21975;-75
2022/01/13 17:10:52;;;;;;;31.60;15.33;;;2.80;78.00;;;;;;5102209;28;20197;-75
2022/01/13 17:13:22;;;;;;;39.43;16.30;;;2.80;78.10;;;;;;5103360;28;20190;-75
2022/01/13 17:15:52;;;;;;;32.63;15.37;;;2.80;78.60;;;;;;5100169;28;20190;-74
2022/01/13 17:18:21;;;;;;;39.13;17.50;;;2.70;78.80;;;;;;5100811;28;20210;-75
2022/01/13 17:20:50;;;;;;;39.43;18.30;;;2.70;78.80;;;;;;5096032;28;20899;-75
2022/01/13 17:23:18;;;;;;;36.47;16.97;;;2.60;79.10;;;;;;5103847;28;20189;-75
2022/01/13 17:25:47;;;;;;;39.80;18.83;;;2.60;79.30;;;;;;5099821;28;20716;-75
2022/01/13 17:28:15;;;;;;;34.33;16.13;;;2.50;79.40;;;;;;5099637;28;20193;-75
2022/01/13 17:30:45;;;;;;;44.35;19.98;;;2.50;79.60;;;;;;5100408;28;20443;-74
2022/01/13 17:33:13;;;;;;;44.67;20.60;;;2.50;79.90;;;;;;5103855;28;20191;-74
2022/01/13 17:35:42;;;;;;;40.77;17.60;;;2.50;79.90;;;;;;5098612;28;20276;-75
2022/01/13 17:38:10;;;;;;;38.63;17.27;;;2.40;80.30;;;;;;5094524;28;20224;-75
2022/01/13 17:40:38;;;;;;;37.97;17.00;;;2.40;80.40;;;;;;5099709;28;20248;-75
2022/01/13 17:43:11;;;;;;;39.00;17.43;;;2.40;80.40;;;;;;5099565;28;20202;-75
2022/01/13 17:45:40;;;;;;;33.27;15.50;;;2.40;80.60;;;;;;5096001;28;20803;-75
2022/01/13 17:48:10;;;;;;;38.37;17.17;;;2.30;80.90;;;;;;5096917;28;20229;-75
2022/01/13 17:50:39;;;;;;;37.47;17.57;;;2.40;80.70;;;;;;5096165;28;20193;-75
2022/01/13 17:53:07;;;;;;;40.23;18.93;;;2.40;80.60;;;;;;5100712;28;20195;-75
2022/01/13 17:55:36;;;;;;;43.37;18.23;;;2.40;80.60;;;;;;5091920;28;20185;-75
2022/01/13 17:58:04;;;;;;;38.70;17.67;;;2.40;80.50;;;;;;5098283;28;20214;-75
2022/01/13 18:00:32;;;;;;;40.37;18.40;;;2.40;80.60;;;;;;5102877;28;20232;-75
2022/01/13 18:03:01;;;;;;;37.20;17.60;;;2.40;80.70;;;;;;5101456;28;20659;-75
2022/01/13 18:05:31;;;;;;;40.10;17.27;;;2.50;80.60;;;;;;5101875;28;20192;-75
2022/01/13 18:08:00;;;;;;;36.53;17.33;;;2.50;80.40;;;;;;5101748;28;20198;-75
2022/01/13 18:10:28;;;;;;;42.33;18.97;;;2.50;80.50;;;;;;5101751;28;20193;-76
2022/01/13 18:12:57;;;;;;;42.03;18.70;;;2.50;81.20;;;;;;5102970;28;20193;-75
2022/01/13 18:15:25;;;;;;;46.53;17.90;;;2.40;80.40;;;;;;5105436;28;20193;-75
2022/01/13 18:17:54;;;;;;;34.27;15.63;;;2.40;80.60;;;;;;5106271;28;20230;-75
2022/01/13 18:20:22;;;;;;;35.13;16.60;;;2.40;80.60;;;;;;5105887;28;20358;-75
2022/01/13 18:22:52;;;;;;;35.90;15.93;;;2.30;80.90;;;;;;5103196;28;20203;-75
2022/01/13 18:25:20;;;;;;;37.70;17.20;;;2.30;81.10;;;;;;5103817;28;20213;-75
2022/01/13 18:27:48;;;;;;;40.30;18.10;;;2.30;81.00;;;;;;5103345;28;20204;-75
2022/01/13 18:30:17;;;;;;;35.00;15.00;;;2.40;81.10;;;;;;5104131;28;20200;-76
2022/01/13 18:32:45;;;;;;;38.37;15.73;;;2.40;80.90;;;;;;5100385;28;20206;-76
2022/01/13 18:35:15;;;;;;;36.63;15.13;;;2.30;81.00;;;;;;5103435;28;20720;-76
2022/01/13 18:37:44;;;;;;;40.47;19.25;;;2.30;81.20;;;;;;5093306;28;20471;-75
2022/01/13 18:40:14;;;;;;;36.80;16.83;;;2.30;81.60;;;;;;5105566;28;20200;-74
2022/01/13 18:42:49;;;;;;;42.43;17.43;;;2.30;81.70;;;;;;5105407;28;20717;-75